createdAt,value
2024-01-30T00:00:52.516Z,4.75
2024-01-30T00:03:48.811Z,4.38
2024-01-30T00:06:35.182Z,4.11
2024-01-30T00:09:21.765Z,4.34
2024-01-30T00:12:08.539Z,6.86
2024-01-30T00:14:55.452Z,8.03
2024-01-30T00:17:42.434Z,7.02
2024-01-30T00:20:28.726Z,5.99
2024-01-30T00:23:15.314Z,5.25
2024-01-30T00:26:01.720Z,4.73
2024-01-30T00:28:48.682Z,4.34
2024-01-30T00:31:37.763Z,4.85
2024-01-30T00:34:26.438Z,7.52
2024-01-30T00:37:12.735Z,8.71
2024-01-30T00:39:59.427Z,7.42
2024-01-30T00:42:46.381Z,6.23
2024-01-30T00:45:32.905Z,5.43
2024-01-30T00:48:19.526Z,4.84
2024-01-30T00:51:06.037Z,4.39
2024-01-30T00:53:52.461Z,4.04
2024-01-30T00:56:39.250Z,4.04
2024-01-30T00:59:25.782Z,6.27
2024-01-30T01:02:12.375Z,8.43
2024-01-30T01:04:59.098Z,9.03
2024-01-30T01:07:48.067Z,7.56
2024-01-30T01:10:34.487Z,6.24
2024-01-30T01:13:21.083Z,5.34
2024-01-30T01:16:07.607Z,4.74
2024-01-30T01:18:54.401Z,4.28
2024-01-30T01:21:40.644Z,3.90
2024-01-30T01:24:27.122Z,3.59
2024-01-30T01:27:13.809Z,4.09
2024-01-30T01:30:00.201Z,6.74
2024-01-30T01:32:51.393Z,8.53
2024-01-30T01:35:37.897Z,8.40
2024-01-30T01:38:24.243Z,6.93
2024-01-30T01:41:10.717Z,5.73
2024-01-30T01:43:57.315Z,4.94
2024-01-30T01:46:44.142Z,4.38
2024-01-30T01:49:31.035Z,3.94
2024-01-30T01:52:17.870Z,3.59
2024-01-30T01:55:05.096Z,4.05
2024-01-30T01:57:53.723Z,6.79
2024-01-30T02:00:42.259Z,7.96
2024-01-30T02:03:29.424Z,6.75
2024-01-30T02:06:16.966Z,5.53
2024-01-30T02:09:05.073Z,4.74
2024-01-30T02:11:52.031Z,4.18
2024-01-30T02:14:49.019Z,3.76
2024-01-30T02:17:35.583Z,4.39
2024-01-30T02:20:25.402Z,7.07
2024-01-30T02:23:13.182Z,8.62
2024-01-30T02:25:59.585Z,7.43
2024-01-30T02:28:47.235Z,6.03
2024-01-30T02:31:33.907Z,5.04
2024-01-30T02:34:21.815Z,4.31
2024-01-30T02:37:08.425Z,3.77
2024-01-30T02:39:54.979Z,3.36
2024-01-30T02:42:42.289Z,3.89
2024-01-30T02:45:28.801Z,6.52
2024-01-30T02:48:15.075Z,8.16
2024-01-30T02:51:02.758Z,7.27
2024-01-30T02:53:49.332Z,5.90
2024-01-30T02:56:35.967Z,5.00
2024-01-30T02:59:22.464Z,4.38
2024-01-30T03:02:09.134Z,3.89
2024-01-30T03:04:55.677Z,3.49
2024-01-30T03:07:42.126Z,3.16
2024-01-30T03:10:30.196Z,2.88
2024-01-30T03:13:16.500Z,3.24
2024-01-30T03:16:03.409Z,5.85
2024-01-30T03:18:50.184Z,7.73
2024-01-30T03:21:36.781Z,8.26
2024-01-30T03:24:22.819Z,6.77
2024-01-30T03:27:10.007Z,5.42
2024-01-30T03:29:56.594Z,4.52
2024-01-30T03:32:44.409Z,3.87
2024-01-30T03:35:30.570Z,3.38
2024-01-30T03:38:17.019Z,2.98
2024-01-30T03:41:03.514Z,3.00
2024-01-30T03:43:49.637Z,5.40
2024-01-30T03:46:36.382Z,7.41
2024-01-30T03:49:23.253Z,7.92
2024-01-30T03:52:09.967Z,6.45
2024-01-30T03:54:56.215Z,5.09
2024-01-30T03:57:42.738Z,4.21
2024-01-30T04:00:29.441Z,3.60
2024-01-30T04:03:16.284Z,3.12
2024-01-30T04:06:05.550Z,3.63
2024-01-30T04:08:52.054Z,6.20
2024-01-30T04:11:38.686Z,7.34
2024-01-30T04:14:25.193Z,6.03
2024-01-30T04:17:11.489Z,4.72
2024-01-30T04:19:58.141Z,3.85
2024-01-30T04:22:46.057Z,3.47
2024-01-30T04:25:32.675Z,5.23
2024-01-30T04:28:19.681Z,5.65
2024-01-30T04:31:06.297Z,4.58
2024-01-30T04:33:52.708Z,3.73
2024-01-30T04:36:39.285Z,3.15
2024-01-30T04:39:25.717Z,3.52
2024-01-30T04:42:12.396Z,5.94
2024-01-30T04:44:58.921Z,7.76
2024-01-30T04:47:46.637Z,8.17
2024-01-30T04:50:32.880Z,6.65
2024-01-30T04:53:19.648Z,5.35
2024-01-30T04:56:06.953Z,4.42
2024-01-30T04:58:53.519Z,3.75
2024-01-30T05:01:40.340Z,3.26
2024-01-30T05:04:27.044Z,3.98
2024-01-30T05:07:13.454Z,6.46
2024-01-30T05:10:01.669Z,8.02
2024-01-30T05:12:49.860Z,8.00
2024-01-30T05:15:36.294Z,6.39
2024-01-30T05:18:23.051Z,5.14
2024-01-30T05:21:09.656Z,4.26
2024-01-30T05:23:56.497Z,3.64
2024-01-30T05:26:43.210Z,3.24
2024-01-30T05:29:29.544Z,4.84
2024-01-30T05:32:15.986Z,7.23
2024-01-30T05:35:02.733Z,7.95
2024-01-30T05:37:52.540Z,6.55
2024-01-30T05:40:39.088Z,5.17
2024-01-30T05:43:25.820Z,4.24
2024-01-30T05:46:12.313Z,3.59
2024-01-30T05:48:58.780Z,3.13
2024-01-30T05:51:45.261Z,2.77
2024-01-30T05:54:31.845Z,2.98
2024-01-30T05:57:18.528Z,5.56
2024-01-30T06:00:08.100Z,7.66
2024-01-30T06:02:54.758Z,8.02
2024-01-30T06:05:41.412Z,6.52
2024-01-30T06:08:27.644Z,5.17
2024-01-30T06:11:14.203Z,4.33
2024-01-30T06:14:00.713Z,3.71
2024-01-30T06:16:47.025Z,3.25
2024-01-30T06:19:33.581Z,2.89
2024-01-30T06:22:20.465Z,2.70
2024-01-30T06:25:07.438Z,4.72
2024-01-30T06:27:54.066Z,7.10
2024-01-30T06:30:40.564Z,8.58
2024-01-30T06:33:26.806Z,7.73
2024-01-30T06:36:13.297Z,6.13
2024-01-30T06:39:00.204Z,4.99
2024-01-30T06:41:47.270Z,4.19
2024-01-30T06:44:33.720Z,3.78
2024-01-30T06:47:20.068Z,5.79
2024-01-30T06:50:07.647Z,8.09
2024-01-30T06:52:53.982Z,8.79
2024-01-30T06:55:40.362Z,7.30
2024-01-30T06:58:27.214Z,5.94
2024-01-30T07:01:13.645Z,5.03
2024-01-30T07:04:00.158Z,4.37
2024-01-30T07:06:46.921Z,3.85
2024-01-30T07:09:34.674Z,3.48
2024-01-30T07:12:21.122Z,4.74
2024-01-30T07:15:10.853Z,7.09
2024-01-30T07:17:57.471Z,7.83
2024-01-30T07:20:46.857Z,6.52
2024-01-30T07:23:35.148Z,5.31
2024-01-30T07:26:21.733Z,4.53
2024-01-30T07:29:07.816Z,5.53
2024-01-30T07:31:54.466Z,7.18
2024-01-30T07:34:49.322Z,6.40
2024-01-30T07:37:40.217Z,5.35
2024-01-30T07:40:26.571Z,4.73
2024-01-30T07:43:13.147Z,4.35
2024-01-30T07:46:01.457Z,4.37
2024-01-30T07:48:47.712Z,6.66
2024-01-30T07:51:34.476Z,8.84
2024-01-30T07:54:20.818Z,8.85
2024-01-30T07:57:07.381Z,7.49
2024-01-30T07:59:54.740Z,6.50
2024-01-30T08:02:41.053Z,5.81
2024-01-30T08:05:27.265Z,5.34
2024-01-30T08:08:14.024Z,5.02
2024-01-30T08:11:00.163Z,4.80
2024-01-30T08:13:46.783Z,5.91
2024-01-30T08:16:33.713Z,8.58
2024-01-30T08:19:19.928Z,9.60
2024-01-30T08:22:06.424Z,8.44
2024-01-30T08:24:53.146Z,7.51
2024-01-30T08:27:39.928Z,6.94
2024-01-30T08:30:26.344Z,6.57
2024-01-30T08:33:14.242Z,6.38
2024-01-30T08:36:00.913Z,6.37
2024-01-30T08:38:47.495Z,6.93
2024-01-30T08:41:34.684Z,9.78
2024-01-30T08:44:21.769Z,11.46
2024-01-30T08:47:08.268Z,10.71
2024-01-30T08:49:54.903Z,9.90
2024-01-30T08:52:41.398Z,9.48
2024-01-30T08:55:27.795Z,9.27
2024-01-30T08:58:14.399Z,9.08
2024-01-30T09:01:01.009Z,8.88
2024-01-30T09:03:47.508Z,8.82
2024-01-30T09:06:33.640Z,8.89
2024-01-30T09:09:19.933Z,9.02
2024-01-30T09:12:09.713Z,9.22
2024-01-30T09:14:56.349Z,9.42
2024-01-30T09:17:42.772Z,9.54
2024-01-30T09:20:32.859Z,9.64
2024-01-30T09:23:21.127Z,9.73
2024-01-30T09:26:07.492Z,9.78
2024-01-30T09:28:54.016Z,9.85
2024-01-30T09:31:44.154Z,10.05
2024-01-30T09:34:31.066Z,10.29
2024-01-30T09:37:19.199Z,10.52
2024-01-30T09:40:07.046Z,10.90
2024-01-30T09:42:54.738Z,11.36
2024-01-30T09:45:44.477Z,11.97
2024-01-30T09:48:31.966Z,12.59
2024-01-30T09:51:19.412Z,13.32
2024-01-30T09:54:05.843Z,14.07
2024-01-30T09:56:52.012Z,14.62
2024-01-30T09:59:38.373Z,15.02
2024-01-30T10:02:24.782Z,15.16
2024-01-30T10:05:15.881Z,15.13
2024-01-30T10:08:08.741Z,15.12
2024-01-30T10:10:58.564Z,15.06
2024-01-30T10:13:46.853Z,14.93
2024-01-30T10:16:37.860Z,14.68
2024-01-30T10:19:25.410Z,14.41
2024-01-30T10:22:12.665Z,14.47
2024-01-30T10:25:03.414Z,14.91
2024-01-30T10:27:58.948Z,15.47
2024-01-30T10:30:45.288Z,16.16
2024-01-30T10:33:32.313Z,16.77
2024-01-30T10:36:21.373Z,17.27
2024-01-30T10:39:07.777Z,17.62
2024-01-30T10:41:58.725Z,17.86
2024-01-30T10:45:05.932Z,18.17
2024-01-30T10:47:58.800Z,18.42
2024-01-30T10:50:51.055Z,18.34
2024-01-30T10:53:47.294Z,18.29
2024-01-30T10:56:34.630Z,18.11
2024-01-30T10:59:24.358Z,18.02
2024-01-30T11:02:11.802Z,17.93
2024-01-30T11:05:00.695Z,17.75
2024-01-30T11:07:47.438Z,17.78
2024-01-30T11:10:45.243Z,17.92
2024-01-30T11:13:32.197Z,17.98
2024-01-30T11:16:20.716Z,18.18
2024-01-30T11:19:14.641Z,18.36
2024-01-30T11:22:01.390Z,18.40
2024-01-30T11:24:48.498Z,18.43
2024-01-30T11:27:35.062Z,18.52
2024-01-30T11:30:26.508Z,18.77
2024-01-30T11:33:33.639Z,18.87
2024-01-30T11:36:26.059Z,18.92
2024-01-30T11:39:15.929Z,18.96
2024-01-30T11:42:08.285Z,19.08
2024-01-30T11:44:54.641Z,19.12
2024-01-30T11:47:44.533Z,18.96
2024-01-30T11:50:35.565Z,18.70
2024-01-30T11:53:23.021Z,18.55
2024-01-30T11:56:09.282Z,18.26
2024-01-30T11:58:55.695Z,17.78
2024-01-30T12:01:42.297Z,17.35
2024-01-30T12:04:30.538Z,16.86
2024-01-30T12:07:17.306Z,16.42
2024-01-30T12:10:04.049Z,15.93
2024-01-30T12:12:51.524Z,15.36
2024-01-30T12:15:37.871Z,14.92
2024-01-30T12:18:24.132Z,14.64
2024-01-30T12:21:10.846Z,14.40
2024-01-30T12:23:58.497Z,14.21
2024-01-30T12:26:44.874Z,13.98
2024-01-30T12:29:36.265Z,13.65
2024-01-30T12:32:24.771Z,13.27
2024-01-30T12:35:16.817Z,13.11
2024-01-30T12:38:03.926Z,13.03
2024-01-30T12:40:55.802Z,12.88
2024-01-30T12:43:43.410Z,12.70
2024-01-30T12:46:30.392Z,12.52
2024-01-30T12:49:17.420Z,12.29
2024-01-30T12:52:04.458Z,12.06
2024-01-30T12:54:52.014Z,11.85
2024-01-30T12:57:40.066Z,11.69
2024-01-30T13:00:26.587Z,11.50
2024-01-30T13:03:13.044Z,11.32
2024-01-30T13:05:59.878Z,11.13
2024-01-30T13:08:46.206Z,10.92
2024-01-30T13:11:32.599Z,10.64
2024-01-30T13:14:19.987Z,10.33
2024-01-30T13:17:06.594Z,10.04
2024-01-30T13:19:55.588Z,9.80
2024-01-30T13:22:44.972Z,9.57
2024-01-30T13:25:32.094Z,9.37
2024-01-30T13:28:18.629Z,9.26
2024-01-30T13:31:07.061Z,9.21
2024-01-30T13:33:54.866Z,9.15
2024-01-30T13:36:41.946Z,9.07
2024-01-30T13:39:33.485Z,8.99
2024-01-30T13:42:24.028Z,8.85
2024-01-30T13:45:13.080Z,8.63
2024-01-30T13:47:59.746Z,8.44
2024-01-30T13:50:46.492Z,8.28
2024-01-30T13:53:32.750Z,8.15
2024-01-30T13:56:20.376Z,8.03
2024-01-30T13:59:06.726Z,7.90
2024-01-30T14:01:53.591Z,7.77
2024-01-30T14:04:40.697Z,7.64
2024-01-30T14:07:27.154Z,7.50
2024-01-30T14:10:15.053Z,7.37
2024-01-30T14:13:02.316Z,7.27
2024-01-30T14:15:48.369Z,7.16
2024-01-30T14:18:35.129Z,7.05
2024-01-30T14:21:21.405Z,6.92
2024-01-30T14:24:07.822Z,6.80
2024-01-30T14:26:54.611Z,6.70
2024-01-30T14:29:41.960Z,6.59
2024-01-30T14:32:28.620Z,6.49
2024-01-30T14:35:16.213Z,6.40
2024-01-30T14:38:04.927Z,6.31
2024-01-30T14:40:51.678Z,6.25
2024-01-30T14:43:38.100Z,6.16
2024-01-30T14:46:27.332Z,6.09
2024-01-30T14:49:16.039Z,6.00
2024-01-30T14:52:04.839Z,5.91
2024-01-30T14:54:51.265Z,5.82
2024-01-30T14:57:38.445Z,5.73
2024-01-30T15:00:25.110Z,5.65
2024-01-30T15:03:11.384Z,5.57
2024-01-30T15:05:57.693Z,5.47
2024-01-30T15:08:44.460Z,5.38
2024-01-30T15:11:32.456Z,5.29
2024-01-30T15:14:19.187Z,5.20
2024-01-30T15:17:05.412Z,5.70
2024-01-30T15:19:52.297Z,7.83
2024-01-30T15:22:41.069Z,7.62
2024-01-30T15:25:29.589Z,6.81
2024-01-30T15:28:15.964Z,6.17
2024-01-30T15:31:02.560Z,5.73
2024-01-30T15:33:48.749Z,5.39
2024-01-30T15:36:35.611Z,5.11
2024-01-30T15:39:21.643Z,5.57
2024-01-30T15:42:08.099Z,8.11
2024-01-30T15:44:54.129Z,8.25
2024-01-30T15:47:43.283Z,7.10
2024-01-30T15:50:29.831Z,6.34
2024-01-30T15:53:16.117Z,5.76
2024-01-30T15:56:02.756Z,5.34
2024-01-30T15:58:50.281Z,5.00
2024-01-30T16:01:36.945Z,5.20
2024-01-30T16:04:25.544Z,7.34
2024-01-30T16:07:11.985Z,7.50
2024-01-30T16:09:58.284Z,6.46
2024-01-30T16:12:46.381Z,5.65
2024-01-30T16:15:33.971Z,5.13
2024-01-30T16:18:20.612Z,6.04
2024-01-30T16:21:07.131Z,8.06
2024-01-30T16:23:54.567Z,7.34
2024-01-30T16:26:40.904Z,6.16
2024-01-30T16:29:27.090Z,5.43
2024-01-30T16:32:14.179Z,4.92
2024-01-30T16:35:01.010Z,6.01
2024-01-30T16:37:47.208Z,7.84
2024-01-30T16:40:34.473Z,7.02
2024-01-30T16:43:21.135Z,5.96
2024-01-30T16:46:07.291Z,5.25
2024-01-30T16:48:54.082Z,4.76
2024-01-30T16:51:40.393Z,5.24
2024-01-30T16:54:26.930Z,7.45
2024-01-30T16:57:13.283Z,7.02
2024-01-30T16:59:59.534Z,5.87
2024-01-30T17:02:46.127Z,5.08
2024-01-30T17:05:33.320Z,6.02
2024-01-30T17:08:19.573Z,7.38
2024-01-30T17:11:06.342Z,6.46
2024-01-30T17:13:52.843Z,5.47
2024-01-30T17:16:39.727Z,5.40
2024-01-30T17:19:26.286Z,6.87
2024-01-30T17:22:13.196Z,6.34
2024-01-30T17:24:59.925Z,5.40
2024-01-30T17:27:46.411Z,5.87
2024-01-30T17:30:32.475Z,7.47
2024-01-30T17:33:18.836Z,6.65
2024-01-30T17:36:05.702Z,5.60
2024-01-30T17:38:52.185Z,5.71
2024-01-30T17:41:38.711Z,7.62
2024-01-30T17:44:24.812Z,7.48
2024-01-30T17:47:11.484Z,6.14
2024-01-30T17:49:58.169Z,5.53
2024-01-30T17:52:44.317Z,7.11
2024-01-30T17:55:30.701Z,7.08
2024-01-30T17:58:16.993Z,5.98
2024-01-30T18:01:03.737Z,5.83
2024-01-30T18:03:52.763Z,7.40
2024-01-30T18:06:38.989Z,6.88
2024-01-30T18:09:26.934Z,5.79
2024-01-30T18:12:15.332Z,5.78
2024-01-30T18:15:03.485Z,7.40
2024-01-30T18:17:49.794Z,6.96
2024-01-30T18:20:36.523Z,5.95
2024-01-30T18:23:23.362Z,5.26
2024-01-30T18:26:10.053Z,6.38
2024-01-30T18:28:56.669Z,7.40
2024-01-30T18:31:43.500Z,6.48
2024-01-30T18:34:30.120Z,5.56
2024-01-30T18:37:16.664Z,6.37
2024-01-30T18:40:07.165Z,7.58
2024-01-30T18:42:53.585Z,6.58
2024-01-30T18:45:39.913Z,5.62
2024-01-30T18:48:26.142Z,6.13
2024-01-30T18:51:18.684Z,7.75
2024-01-30T18:54:04.961Z,7.43
2024-01-30T18:56:51.155Z,6.30
2024-01-30T18:59:38.062Z,5.50
2024-01-30T19:02:24.517Z,6.80
2024-01-30T19:05:11.244Z,7.34
2024-01-30T19:07:58.361Z,6.33
2024-01-30T19:10:46.304Z,5.60
2024-01-30T19:13:35.023Z,6.72
2024-01-30T19:16:21.585Z,8.23
2024-01-30T19:19:08.223Z,7.23
2024-01-30T19:21:54.550Z,6.22
2024-01-30T19:24:41.068Z,5.60
2024-01-30T19:27:28.291Z,7.18
2024-01-30T19:30:16.067Z,8.48
2024-01-30T19:33:02.529Z,7.49
2024-01-30T19:35:48.708Z,6.47
2024-01-30T19:38:35.215Z,5.85
2024-01-30T19:41:21.714Z,7.23
2024-01-30T19:44:10.061Z,8.49
2024-01-30T19:47:01.175Z,7.54
2024-01-30T19:49:47.546Z,6.53
2024-01-30T19:52:34.761Z,5.91
2024-01-30T19:55:22.120Z,6.54
2024-01-30T19:58:09.028Z,8.58
2024-01-30T20:00:55.685Z,8.28
2024-01-30T20:03:42.362Z,7.10
2024-01-30T20:06:30.654Z,6.34
2024-01-30T20:09:21.198Z,7.04
2024-01-30T20:12:07.367Z,8.98
2024-01-30T20:14:54.084Z,8.45
2024-01-30T20:17:41.410Z,7.34
2024-01-30T20:20:28.039Z,6.55
2024-01-30T20:23:15.448Z,6.90
2024-01-30T20:26:03.814Z,8.75
2024-01-30T20:28:54.051Z,8.03
2024-01-30T20:31:40.838Z,6.98
2024-01-30T20:34:28.667Z,6.26
2024-01-30T20:37:14.975Z,6.98
2024-01-30T20:40:02.461Z,9.01
2024-01-30T20:42:48.961Z,8.45
2024-01-30T20:45:35.533Z,7.22
2024-01-30T20:48:22.017Z,6.39
2024-01-30T20:51:08.409Z,6.49
2024-01-30T20:53:56.537Z,8.69
2024-01-30T20:56:43.414Z,9.70
2024-01-30T20:59:29.907Z,8.39
2024-01-30T21:02:16.470Z,7.27
2024-01-30T21:05:03.232Z,6.45
2024-01-30T21:07:53.352Z,6.02
2024-01-30T21:10:40.408Z,7.72
2024-01-30T21:13:26.660Z,8.88
2024-01-30T21:16:13.420Z,7.83
2024-01-30T21:18:59.881Z,6.84
2024-01-30T21:21:46.525Z,6.16
2024-01-30T21:24:32.936Z,5.72
2024-01-30T21:27:19.308Z,6.11
2024-01-30T21:30:07.042Z,8.55
2024-01-30T21:32:54.019Z,9.90
2024-01-30T21:35:40.799Z,8.93
2024-01-30T21:38:28.080Z,7.62
2024-01-30T21:41:17.853Z,6.75
2024-01-30T21:44:04.275Z,6.13
2024-01-30T21:46:50.734Z,6.34
2024-01-30T21:49:41.607Z,8.71
2024-01-30T21:52:28.785Z,9.38
2024-01-30T21:55:15.633Z,8.20
2024-01-30T21:58:01.913Z,7.14
2024-01-30T22:00:48.527Z,6.44
2024-01-30T22:03:35.096Z,5.92
2024-01-30T22:06:21.759Z,5.56
2024-01-30T22:09:08.182Z,6.74
2024-01-30T22:11:54.765Z,9.08
2024-01-30T22:14:40.967Z,9.38
2024-01-30T22:17:27.367Z,8.12
2024-01-30T22:20:16.563Z,7.13
2024-01-30T22:23:03.414Z,6.44
2024-01-30T22:25:51.028Z,5.97
2024-01-30T22:28:37.953Z,5.60
2024-01-30T22:31:24.552Z,6.11
2024-01-30T22:34:10.832Z,8.73
2024-01-30T22:36:57.392Z,10.04
2024-01-30T22:39:43.401Z,8.82
2024-01-30T22:42:30.337Z,7.63
2024-01-30T22:45:17.164Z,6.82
2024-01-30T22:48:04.064Z,6.26
2024-01-30T22:50:50.462Z,5.82
2024-01-30T22:53:36.633Z,5.61
2024-01-30T22:56:22.603Z,7.37
2024-01-30T22:59:09.092Z,9.51
2024-01-30T23:01:55.421Z,10.14
2024-01-30T23:04:41.595Z,8.89
2024-01-30T23:07:28.109Z,7.71
2024-01-30T23:10:14.928Z,6.93
2024-01-30T23:13:01.781Z,6.38
2024-01-30T23:15:48.474Z,5.96
2024-01-30T23:18:35.217Z,5.61
2024-01-30T23:21:22.007Z,5.51
2024-01-30T23:24:08.538Z,7.57
2024-01-30T23:26:54.976Z,9.69
2024-01-30T23:29:41.009Z,10.04
2024-01-30T23:32:34.778Z,8.59
2024-01-30T23:38:30.003Z,6.36
2024-01-30T23:41:16.498Z,6.57
2024-01-30T23:44:03.054Z,8.49
2024-01-30T23:46:49.301Z,8.07
2024-01-30T23:49:35.750Z,6.96
2024-01-30T23:52:22.588Z,6.17
2024-01-30T23:55:09.684Z,7.10
2024-01-30T23:57:56.416Z,9.35
